sensor_id;sensor_type;location;lat;lon;timestamp;temperature;humidity
25092;DHT22;13082;52.374;4.946;2023-05-07T00:01:49;15.00;99.90
25092;DHT22;13082;52.374;4.946;2023-05-07T00:04:14;15.10;99.90
25092;DHT22;13082;52.374;4.946;2023-05-07T00:06:40;15.00;99.90
25092;DHT22;13082;52.374;4.946;2023-05-07T00:09:06;15.00;99.90
25092;DHT22;13082;52.374;4.946;2023-05-07T00:11:32;15.00;99.90
25092;DHT22;13082;52.374;4.946;2023-05-07T00:13:58;15.00;99.90
25092;DHT22;13082;52.374;4.946;2023-05-07T00:16:24;15.00;99.90
25092;DHT22;13082;52.374;4.946;2023-05-07T00:18:49;14.90;99.90
25092;DHT22;13082;52.374;4.946;2023-05-07T00:21:15;15.00;99.90
25092;DHT22;13082;52.374;4.946;2023-05-07T00:23:41;15.00;99.90
25092;DHT22;13082;52.374;4.946;2023-05-07T00:26:07;14.90;99.90
25092;DHT22;13082;52.374;4.946;2023-05-07T00:28:32;14.90;99.90
25092;DHT22;13082;52.374;4.946;2023-05-07T00:30:58;14.90;99.90
25092;DHT22;13082;52.374;4.946;2023-05-07T00:33:23;14.90;99.90
25092;DHT22;13082;52.374;4.946;2023-05-07T00:35:49;14.90;99.90
25092;DHT22;13082;52.374;4.946;2023-05-07T00:38:15;14.90;99.90
25092;DHT22;13082;52.374;4.946;2023-05-07T00:40:40;14.80;99.90
25092;DHT22;13082;52.374;4.946;2023-05-07T00:43:06;14.80;99.90
25092;DHT22;13082;52.374;4.946;2023-05-07T00:45:32;14.80;99.90
25092;DHT22;13082;52.374;4.946;2023-05-07T00:48:00;14.80;99.90
25092;DHT22;13082;52.374;4.946;2023-05-07T00:50:27;14.80;99.90
25092;DHT22;13082;52.374;4.946;2023-05-07T00:52:54;14.80;99.90
25092;DHT22;13082;52.374;4.946;2023-05-07T00:55:21;14.80;99.90
25092;DHT22;13082;52.374;4.946;2023-05-07T00:57:47;14.80;99.90
25092;DHT22;13082;52.374;4.946;2023-05-07T01:00:13;14.80;99.90
25092;DHT22;13082;52.374;4.946;2023-05-07T01:02:39;14.70;99.90
25092;DHT22;13082;52.374;4.946;2023-05-07T01:05:05;14.70;99.90
25092;DHT22;13082;52.374;4.946;2023-05-07T01:07:33;14.70;99.90
25092;DHT22;13082;52.374;4.946;2023-05-07T01:09:59;14.70;99.90
25092;DHT22;13082;52.374;4.946;2023-05-07T01:12:25;14.70;99.90
25092;DHT22;13082;52.374;4.946;2023-05-07T01:14:52;14.70;99.90
25092;DHT22;13082;52.374;4.946;2023-05-07T01:17:18;14.70;99.90
25092;DHT22;13082;52.374;4.946;2023-05-07T01:19:43;14.70;99.90
25092;DHT22;13082;52.374;4.946;2023-05-07T01:22:10;14.70;99.90
25092;DHT22;13082;52.374;4.946;2023-05-07T01:24:41;14.70;99.90
25092;DHT22;13082;52.374;4.946;2023-05-07T01:27:07;14.70;99.90
25092;DHT22;13082;52.374;4.946;2023-05-07T01:29:32;14.70;99.90
25092;DHT22;13082;52.374;4.946;2023-05-07T01:31:59;14.70;99.90
25092;DHT22;13082;52.374;4.946;2023-05-07T01:34:27;14.70;99.90
25092;DHT22;13082;52.374;4.946;2023-05-07T01:36:56;14.70;99.90
25092;DHT22;13082;52.374;4.946;2023-05-07T01:39:27;14.70;99.90
25092;DHT22;13082;52.374;4.946;2023-05-07T01:41:56;14.70;99.90
25092;DHT22;13082;52.374;4.946;2023-05-07T01:44:22;14.70;99.90
25092;DHT22;13082;52.374;4.946;2023-05-07T01:46:49;14.70;99.90
25092;DHT22;13082;52.374;4.946;2023-05-07T01:49:15;14.70;99.90
25092;DHT22;13082;52.374;4.946;2023-05-07T01:51:41;14.70;99.90
25092;DHT22;13082;52.374;4.946;2023-05-07T01:54:08;14.70;99.90
25092;DHT22;13082;52.374;4.946;2023-05-07T01:56:34;14.70;99.90
25092;DHT22;13082;52.374;4.946;2023-05-07T01:58:59;14.70;99.90
25092;DHT22;13082;52.374;4.946;2023-05-07T02:01:25;14.70;99.90
25092;DHT22;13082;52.374;4.946;2023-05-07T02:03:51;14.70;99.90
25092;DHT22;13082;52.374;4.946;2023-05-07T02:06:17;14.70;99.90
25092;DHT22;13082;52.374;4.946;2023-05-07T02:08:42;14.70;99.90
25092;DHT22;13082;52.374;4.946;2023-05-07T02:11:08;14.70;99.90
25092;DHT22;13082;52.374;4.946;2023-05-07T02:13:34;14.70;99.90
25092;DHT22;13082;52.374;4.946;2023-05-07T02:16:02;14.70;99.90
25092;DHT22;13082;52.374;4.946;2023-05-07T02:18:28;14.70;99.90
25092;DHT22;13082;52.374;4.946;2023-05-07T02:20:54;14.70;99.90
25092;DHT22;13082;52.374;4.946;2023-05-07T02:23:20;14.70;99.90
25092;DHT22;13082;52.374;4.946;2023-05-07T02:25:45;14.70;99.90
25092;DHT22;13082;52.374;4.946;2023-05-07T02:28:11;14.60;99.90
25092;DHT22;13082;52.374;4.946;2023-05-07T02:30:37;14.70;99.90
25092;DHT22;13082;52.374;4.946;2023-05-07T02:33:03;14.60;99.90
25092;DHT22;13082;52.374;4.946;2023-05-07T02:35:28;14.70;99.90
25092;DHT22;13082;52.374;4.946;2023-05-07T02:37:54;14.70;99.90
25092;DHT22;13082;52.374;4.946;2023-05-07T02:40:20;14.70;99.90
25092;DHT22;13082;52.374;4.946;2023-05-07T02:42:45;14.70;99.90
25092;DHT22;13082;52.374;4.946;2023-05-07T02:45:11;14.70;99.90
25092;DHT22;13082;52.374;4.946;2023-05-07T02:47:37;14.80;99.90
25092;DHT22;13082;52.374;4.946;2023-05-07T02:50:03;14.80;99.90
25092;DHT22;13082;52.374;4.946;2023-05-07T02:52:29;14.80;99.90
25092;DHT22;13082;52.374;4.946;2023-05-07T02:54:54;14.80;99.90
25092;DHT22;13082;52.374;4.946;2023-05-07T02:57:20;14.80;99.90
25092;DHT22;13082;52.374;4.946;2023-05-07T02:59:46;14.80;99.90
25092;DHT22;13082;52.374;4.946;2023-05-07T03:02:12;14.90;99.90
25092;DHT22;13082;52.374;4.946;2023-05-07T03:04:39;14.80;99.90
25092;DHT22;13082;52.374;4.946;2023-05-07T03:07:05;14.80;99.90
25092;DHT22;13082;52.374;4.946;2023-05-07T03:09:31;14.90;99.90
25092;DHT22;13082;52.374;4.946;2023-05-07T03:11:56;14.80;99.90
25092;DHT22;13082;52.374;4.946;2023-05-07T03:14:22;14.90;99.90
25092;DHT22;13082;52.374;4.946;2023-05-07T03:16:49;14.90;99.90
25092;DHT22;13082;52.374;4.946;2023-05-07T03:19:14;14.90;99.90
25092;DHT22;13082;52.374;4.946;2023-05-07T03:21:40;14.90;99.90
25092;DHT22;13082;52.374;4.946;2023-05-07T03:24:06;15.00;99.90
25092;DHT22;13082;52.374;4.946;2023-05-07T03:26:31;14.90;99.90
25092;DHT22;13082;52.374;4.946;2023-05-07T03:28:57;14.90;99.90
25092;DHT22;13082;52.374;4.946;2023-05-07T03:31:22;14.90;99.90
25092;DHT22;13082;52.374;4.946;2023-05-07T03:33:56;14.90;99.90
25092;DHT22;13082;52.374;4.946;2023-05-07T03:36:22;14.90;99.90
25092;DHT22;13082;52.374;4.946;2023-05-07T03:38:49;14.90;99.90
25092;DHT22;13082;52.374;4.946;2023-05-07T03:41:15;14.90;99.90
25092;DHT22;13082;52.374;4.946;2023-05-07T03:43:41;14.90;99.90
25092;DHT22;13082;52.374;4.946;2023-05-07T03:46:06;14.90;99.90
25092;DHT22;13082;52.374;4.946;2023-05-07T03:48:32;14.90;99.90
25092;DHT22;13082;52.374;4.946;2023-05-07T03:50:58;14.90;99.90
25092;DHT22;13082;52.374;4.946;2023-05-07T03:53:23;14.90;99.90
25092;DHT22;13082;52.374;4.946;2023-05-07T03:55:49;14.90;99.90
25092;DHT22;13082;52.374;4.946;2023-05-07T03:58:15;14.90;99.90
25092;DHT22;13082;52.374;4.946;2023-05-07T04:00:41;14.90;99.90
25092;DHT22;13082;52.374;4.946;2023-05-07T04:03:07;14.90;99.90
25092;DHT22;13082;52.374;4.946;2023-05-07T04:05:33;14.90;99.90
25092;DHT22;13082;52.374;4.946;2023-05-07T04:07:59;15.00;99.90
25092;DHT22;13082;52.374;4.946;2023-05-07T04:10:25;14.90;99.90
25092;DHT22;13082;52.374;4.946;2023-05-07T04:12:50;14.90;99.90
25092;DHT22;13082;52.374;4.946;2023-05-07T04:15:16;14.90;99.90
25092;DHT22;13082;52.374;4.946;2023-05-07T04:17:42;14.90;99.90
25092;DHT22;13082;52.374;4.946;2023-05-07T04:20:15;14.90;99.90
25092;DHT22;13082;52.374;4.946;2023-05-07T04:22:41;14.90;99.90
25092;DHT22;13082;52.374;4.946;2023-05-07T04:25:08;14.90;99.90
25092;DHT22;13082;52.374;4.946;2023-05-07T04:27:37;14.90;99.90
25092;DHT22;13082;52.374;4.946;2023-05-07T04:30:03;14.90;99.90
25092;DHT22;13082;52.374;4.946;2023-05-07T04:32:29;14.90;99.90
25092;DHT22;13082;52.374;4.946;2023-05-07T04:34:56;15.00;99.90
25092;DHT22;13082;52.374;4.946;2023-05-07T04:37:22;15.00;99.90
25092;DHT22;13082;52.374;4.946;2023-05-07T04:39:47;15.00;99.90
25092;DHT22;13082;52.374;4.946;2023-05-07T04:42:17;15.00;99.90
25092;DHT22;13082;52.374;4.946;2023-05-07T04:44:44;15.00;99.90
25092;DHT22;13082;52.374;4.946;2023-05-07T04:47:10;15.00;99.90
25092;DHT22;13082;52.374;4.946;2023-05-07T04:49:36;15.00;99.90
25092;DHT22;13082;52.374;4.946;2023-05-07T04:52:02;15.00;99.90
25092;DHT22;13082;52.374;4.946;2023-05-07T04:54:29;15.00;99.90
25092;DHT22;13082;52.374;4.946;2023-05-07T04:56:55;15.00;99.90
25092;DHT22;13082;52.374;4.946;2023-05-07T04:59:20;15.00;99.90
25092;DHT22;13082;52.374;4.946;2023-05-07T05:01:46;15.00;99.90
25092;DHT22;13082;52.374;4.946;2023-05-07T05:04:12;15.00;99.90
25092;DHT22;13082;52.374;4.946;2023-05-07T05:06:38;15.00;99.90
25092;DHT22;13082;52.374;4.946;2023-05-07T05:09:04;15.00;99.90
25092;DHT22;13082;52.374;4.946;2023-05-07T05:11:30;15.10;99.90
25092;DHT22;13082;52.374;4.946;2023-05-07T05:13:56;15.10;99.90
25092;DHT22;13082;52.374;4.946;2023-05-07T05:16:22;15.10;99.90
25092;DHT22;13082;52.374;4.946;2023-05-07T05:18:48;15.10;99.90
25092;DHT22;13082;52.374;4.946;2023-05-07T05:21:13;15.10;99.90
25092;DHT22;13082;52.374;4.946;2023-05-07T05:23:39;15.10;99.90
25092;DHT22;13082;52.374;4.946;2023-05-07T05:26:04;15.10;99.90
25092;DHT22;13082;52.374;4.946;2023-05-07T05:28:30;15.10;99.90
25092;DHT22;13082;52.374;4.946;2023-05-07T05:30:56;15.10;99.90
25092;DHT22;13082;52.374;4.946;2023-05-07T05:33:21;15.00;99.90
25092;DHT22;13082;52.374;4.946;2023-05-07T05:35:47;15.00;99.90
25092;DHT22;13082;52.374;4.946;2023-05-07T05:38:13;15.10;99.90
25092;DHT22;13082;52.374;4.946;2023-05-07T05:40:38;15.10;99.90
25092;DHT22;13082;52.374;4.946;2023-05-07T05:43:05;15.10;99.90
25092;DHT22;13082;52.374;4.946;2023-05-07T05:45:31;15.10;99.90
25092;DHT22;13082;52.374;4.946;2023-05-07T05:47:56;15.10;99.90
25092;DHT22;13082;52.374;4.946;2023-05-07T05:50:22;15.10;99.90
25092;DHT22;13082;52.374;4.946;2023-05-07T05:52:48;15.10;99.90
25092;DHT22;13082;52.374;4.946;2023-05-07T05:55:14;15.20;99.90
25092;DHT22;13082;52.374;4.946;2023-05-07T05:57:39;15.20;99.90
25092;DHT22;13082;52.374;4.946;2023-05-07T06:00:06;15.30;99.90
25092;DHT22;13082;52.374;4.946;2023-05-07T06:02:32;15.30;99.90
25092;DHT22;13082;52.374;4.946;2023-05-07T06:04:57;15.30;99.90
25092;DHT22;13082;52.374;4.946;2023-05-07T06:07:23;15.30;99.90
25092;DHT22;13082;52.374;4.946;2023-05-07T06:09:49;15.30;99.90
25092;DHT22;13082;52.374;4.946;2023-05-07T06:12:14;15.30;99.90
25092;DHT22;13082;52.374;4.946;2023-05-07T06:14:40;15.30;99.90
25092;DHT22;13082;52.374;4.946;2023-05-07T06:17:07;15.40;99.90
25092;DHT22;13082;52.374;4.946;2023-05-07T06:19:33;15.40;99.90
25092;DHT22;13082;52.374;4.946;2023-05-07T06:21:58;15.40;99.90
25092;DHT22;13082;52.374;4.946;2023-05-07T06:24:26;15.50;99.90
25092;DHT22;13082;52.374;4.946;2023-05-07T06:26:52;15.50;99.90
25092;DHT22;13082;52.374;4.946;2023-05-07T06:29:18;15.50;99.90
25092;DHT22;13082;52.374;4.946;2023-05-07T06:31:43;15.40;99.90
25092;DHT22;13082;52.374;4.946;2023-05-07T06:34:09;15.40;99.90
25092;DHT22;13082;52.374;4.946;2023-05-07T06:36:35;15.40;99.90
25092;DHT22;13082;52.374;4.946;2023-05-07T06:39:01;15.40;99.90
25092;DHT22;13082;52.374;4.946;2023-05-07T06:41:26;15.40;99.90
25092;DHT22;13082;52.374;4.946;2023-05-07T06:43:52;15.50;99.90
25092;DHT22;13082;52.374;4.946;2023-05-07T06:46:17;15.40;99.90
25092;DHT22;13082;52.374;4.946;2023-05-07T06:48:43;15.50;99.90
25092;DHT22;13082;52.374;4.946;2023-05-07T06:51:09;15.50;99.90
25092;DHT22;13082;52.374;4.946;2023-05-07T06:53:35;15.50;99.90
25092;DHT22;13082;52.374;4.946;2023-05-07T06:56:01;15.50;99.90
25092;DHT22;13082;52.374;4.946;2023-05-07T06:58:26;15.50;99.90
25092;DHT22;13082;52.374;4.946;2023-05-07T07:00:52;15.60;99.90
25092;DHT22;13082;52.374;4.946;2023-05-07T07:03:17;15.60;99.90
25092;DHT22;13082;52.374;4.946;2023-05-07T07:05:43;15.60;99.90
25092;DHT22;13082;52.374;4.946;2023-05-07T07:08:09;15.70;99.90
25092;DHT22;13082;52.374;4.946;2023-05-07T07:10:35;15.60;99.90
25092;DHT22;13082;52.374;4.946;2023-05-07T07:13:01;15.60;99.90
25092;DHT22;13082;52.374;4.946;2023-05-07T07:15:26;15.70;99.90
25092;DHT22;13082;52.374;4.946;2023-05-07T07:17:52;15.70;99.90
25092;DHT22;13082;52.374;4.946;2023-05-07T07:20:18;15.60;99.90
25092;DHT22;13082;52.374;4.946;2023-05-07T07:22:43;15.60;99.90
25092;DHT22;13082;52.374;4.946;2023-05-07T07:25:09;15.60;99.90
25092;DHT22;13082;52.374;4.946;2023-05-07T07:27:36;15.60;99.90
25092;DHT22;13082;52.374;4.946;2023-05-07T07:30:02;15.70;99.90
25092;DHT22;13082;52.374;4.946;2023-05-07T07:32:28;15.80;99.90
25092;DHT22;13082;52.374;4.946;2023-05-07T07:34:53;15.80;99.90
25092;DHT22;13082;52.374;4.946;2023-05-07T07:37:19;15.80;99.90
25092;DHT22;13082;52.374;4.946;2023-05-07T07:39:44;15.80;99.90
25092;DHT22;13082;52.374;4.946;2023-05-07T07:42:10;15.80;99.90
25092;DHT22;13082;52.374;4.946;2023-05-07T07:44:36;15.80;99.90
25092;DHT22;13082;52.374;4.946;2023-05-07T07:47:01;15.80;99.90
25092;DHT22;13082;52.374;4.946;2023-05-07T07:49:27;15.90;99.90
25092;DHT22;13082;52.374;4.946;2023-05-07T07:51:52;15.90;99.90
25092;DHT22;13082;52.374;4.946;2023-05-07T07:54:18;15.90;99.90
25092;DHT22;13082;52.374;4.946;2023-05-07T07:56:44;15.80;99.90
25092;DHT22;13082;52.374;4.946;2023-05-07T07:59:10;15.90;99.90
25092;DHT22;13082;52.374;4.946;2023-05-07T08:01:35;15.90;99.90
25092;DHT22;13082;52.374;4.946;2023-05-07T08:04:01;16.00;99.90
25092;DHT22;13082;52.374;4.946;2023-05-07T08:06:28;16.00;99.90
25092;DHT22;13082;52.374;4.946;2023-05-07T08:08:55;16.00;99.90
25092;DHT22;13082;52.374;4.946;2023-05-07T08:11:20;16.00;99.90
25092;DHT22;13082;52.374;4.946;2023-05-07T08:13:47;16.10;99.90
25092;DHT22;13082;52.374;4.946;2023-05-07T08:16:13;16.20;99.90
25092;DHT22;13082;52.374;4.946;2023-05-07T08:18:38;16.30;99.90
25092;DHT22;13082;52.374;4.946;2023-05-07T08:21:04;16.50;99.90
25092;DHT22;13082;52.374;4.946;2023-05-07T08:23:30;16.60;99.90
25092;DHT22;13082;52.374;4.946;2023-05-07T08:25:55;16.70;99.90
25092;DHT22;13082;52.374;4.946;2023-05-07T08:28:21;16.90;99.90
25092;DHT22;13082;52.374;4.946;2023-05-07T08:30:47;16.90;99.90
25092;DHT22;13082;52.374;4.946;2023-05-07T08:33:12;17.10;99.90
25092;DHT22;13082;52.374;4.946;2023-05-07T08:35:38;17.20;99.90
25092;DHT22;13082;52.374;4.946;2023-05-07T08:38:04;17.20;99.90
25092;DHT22;13082;52.374;4.946;2023-05-07T08:40:33;17.20;99.90
25092;DHT22;13082;52.374;4.946;2023-05-07T08:43:02;17.10;99.90
25092;DHT22;13082;52.374;4.946;2023-05-07T08:45:30;17.10;99.90
25092;DHT22;13082;52.374;4.946;2023-05-07T08:47:59;17.10;99.90
25092;DHT22;13082;52.374;4.946;2023-05-07T08:50:25;17.10;99.90
25092;DHT22;13082;52.374;4.946;2023-05-07T08:52:51;17.20;99.90
25092;DHT22;13082;52.374;4.946;2023-05-07T08:55:17;17.30;99.90
25092;DHT22;13082;52.374;4.946;2023-05-07T08:57:43;17.40;99.90
25092;DHT22;13082;52.374;4.946;2023-05-07T09:00:09;17.60;99.90
25092;DHT22;13082;52.374;4.946;2023-05-07T09:02:35;17.70;99.90
25092;DHT22;13082;52.374;4.946;2023-05-07T09:05:01;17.90;99.90
25092;DHT22;13082;52.374;4.946;2023-05-07T09:07:27;18.00;99.90
25092;DHT22;13082;52.374;4.946;2023-05-07T09:09:53;18.10;99.90
25092;DHT22;13082;52.374;4.946;2023-05-07T09:12:21;18.10;99.90
25092;DHT22;13082;52.374;4.946;2023-05-07T09:14:46;18.10;99.90
25092;DHT22;13082;52.374;4.946;2023-05-07T09:17:13;18.10;99.90
25092;DHT22;13082;52.374;4.946;2023-05-07T09:19:38;18.10;99.90
25092;DHT22;13082;52.374;4.946;2023-05-07T09:22:05;18.00;99.90
25092;DHT22;13082;52.374;4.946;2023-05-07T09:24:32;18.10;99.90
25092;DHT22;13082;52.374;4.946;2023-05-07T09:27:03;18.10;99.90
25092;DHT22;13082;52.374;4.946;2023-05-07T09:29:30;18.10;99.90
25092;DHT22;13082;52.374;4.946;2023-05-07T09:32:01;18.10;99.90
25092;DHT22;13082;52.374;4.946;2023-05-07T09:34:27;18.10;99.90
25092;DHT22;13082;52.374;4.946;2023-05-07T09:36:53;18.20;99.90
25092;DHT22;13082;52.374;4.946;2023-05-07T09:39:19;18.20;99.90
25092;DHT22;13082;52.374;4.946;2023-05-07T09:41:46;18.30;99.90
25092;DHT22;13082;52.374;4.946;2023-05-07T09:44:13;18.30;99.90
25092;DHT22;13082;52.374;4.946;2023-05-07T09:46:42;18.40;99.90
25092;DHT22;13082;52.374;4.946;2023-05-07T09:49:13;18.50;99.90
25092;DHT22;13082;52.374;4.946;2023-05-07T09:51:48;18.60;99.90
25092;DHT22;13082;52.374;4.946;2023-05-07T09:54:15;18.60;99.90
25092;DHT22;13082;52.374;4.946;2023-05-07T09:56:41;18.60;99.90
25092;DHT22;13082;52.374;4.946;2023-05-07T09:59:08;18.70;99.90
25092;DHT22;13082;52.374;4.946;2023-05-07T10:01:36;18.80;99.90
25092;DHT22;13082;52.374;4.946;2023-05-07T10:04:02;18.80;99.90
25092;DHT22;13082;52.374;4.946;2023-05-07T10:06:30;18.90;99.90
25092;DHT22;13082;52.374;4.946;2023-05-07T10:08:56;18.90;99.90
25092;DHT22;13082;52.374;4.946;2023-05-07T10:11:22;19.00;99.90
25092;DHT22;13082;52.374;4.946;2023-05-07T10:13:48;19.10;99.90
25092;DHT22;13082;52.374;4.946;2023-05-07T10:16:14;19.20;99.90
25092;DHT22;13082;52.374;4.946;2023-05-07T10:18:41;19.20;99.90
25092;DHT22;13082;52.374;4.946;2023-05-07T10:21:21;19.20;99.90
25092;DHT22;13082;52.374;4.946;2023-05-07T10:23:57;19.10;99.90
25092;DHT22;13082;52.374;4.946;2023-05-07T10:26:24;19.00;99.90
25092;DHT22;13082;52.374;4.946;2023-05-07T10:28:57;18.90;99.90
25092;DHT22;13082;52.374;4.946;2023-05-07T10:34:13;18.80;99.90
25092;DHT22;13082;52.374;4.946;2023-05-07T10:36:40;18.90;99.90
25092;DHT22;13082;52.374;4.946;2023-05-07T10:39:06;19.00;99.90
25092;DHT22;13082;52.374;4.946;2023-05-07T10:41:32;19.10;99.90
25092;DHT22;13082;52.374;4.946;2023-05-07T10:43:58;19.20;99.90
25092;DHT22;13082;52.374;4.946;2023-05-07T10:46:26;19.20;99.90
25092;DHT22;13082;52.374;4.946;2023-05-07T10:51:32;19.30;99.90
25092;DHT22;13082;52.374;4.946;2023-05-07T10:56:40;19.30;99.90
25092;DHT22;13082;52.374;4.946;2023-05-07T10:59:31;19.40;99.90
25092;DHT22;13082;52.374;4.946;2023-05-07T11:01:57;19.60;99.90
25092;DHT22;13082;52.374;4.946;2023-05-07T11:04:24;19.60;99.90
25092;DHT22;13082;52.374;4.946;2023-05-07T11:15:08;19.70;99.90
25092;DHT22;13082;52.374;4.946;2023-05-07T11:17:34;19.80;99.90
25092;DHT22;13082;52.374;4.946;2023-05-07T11:20:17;19.80;99.90
25092;DHT22;13082;52.374;4.946;2023-05-07T11:22:42;19.80;99.90
25092;DHT22;13082;52.374;4.946;2023-05-07T11:25:08;19.80;99.90
25092;DHT22;13082;52.374;4.946;2023-05-07T11:27:34;19.80;99.90
25092;DHT22;13082;52.374;4.946;2023-05-07T11:30:00;19.80;99.90
25092;DHT22;13082;52.374;4.946;2023-05-07T11:32:31;19.80;99.90
25092;DHT22;13082;52.374;4.946;2023-05-07T11:35:00;19.80;99.90
25092;DHT22;13082;52.374;4.946;2023-05-07T11:37:27;19.80;99.90
25092;DHT22;13082;52.374;4.946;2023-05-07T11:40:05;19.70;99.90
25092;DHT22;13082;52.374;4.946;2023-05-07T11:42:34;19.70;99.90
25092;DHT22;13082;52.374;4.946;2023-05-07T11:45:00;19.70;99.90
25092;DHT22;13082;52.374;4.946;2023-05-07T11:47:26;19.80;99.90
25092;DHT22;13082;52.374;4.946;2023-05-07T11:49:55;19.80;99.90
25092;DHT22;13082;52.374;4.946;2023-05-07T11:52:22;19.80;99.90
25092;DHT22;13082;52.374;4.946;2023-05-07T11:54:55;19.70;99.90
25092;DHT22;13082;52.374;4.946;2023-05-07T11:57:22;19.60;99.90
25092;DHT22;13082;52.374;4.946;2023-05-07T11:59:47;19.40;99.90
25092;DHT22;13082;52.374;4.946;2023-05-07T12:02:17;19.40;99.90
25092;DHT22;13082;52.374;4.946;2023-05-07T12:04:43;19.30;99.90
25092;DHT22;13082;52.374;4.946;2023-05-07T12:07:15;19.30;99.90
25092;DHT22;13082;52.374;4.946;2023-05-07T12:09:45;19.20;99.90
25092;DHT22;13082;52.374;4.946;2023-05-07T12:12:12;19.20;99.90
25092;DHT22;13082;52.374;4.946;2023-05-07T12:14:42;19.20;99.90
25092;DHT22;13082;52.374;4.946;2023-05-07T12:17:09;19.20;99.90
25092;DHT22;13082;52.374;4.946;2023-05-07T12:19:39;19.20;99.90
25092;DHT22;13082;52.374;4.946;2023-05-07T12:22:05;19.20;99.90
25092;DHT22;13082;52.374;4.946;2023-05-07T12:24:57;19.20;99.90
25092;DHT22;13082;52.374;4.946;2023-05-07T12:27:23;19.20;99.90
25092;DHT22;13082;52.374;4.946;2023-05-07T12:29:50;19.20;99.90
25092;DHT22;13082;52.374;4.946;2023-05-07T12:32:17;19.20;99.90
25092;DHT22;13082;52.374;4.946;2023-05-07T12:34:46;19.20;99.90
25092;DHT22;13082;52.374;4.946;2023-05-07T12:37:14;19.20;99.90
25092;DHT22;13082;52.374;4.946;2023-05-07T12:40:03;19.20;99.90
25092;DHT22;13082;52.374;4.946;2023-05-07T12:42:35;19.20;99.90
25092;DHT22;13082;52.374;4.946;2023-05-07T12:45:11;19.20;99.90
25092;DHT22;13082;52.374;4.946;2023-05-07T12:47:36;19.20;99.90
25092;DHT22;13082;52.374;4.946;2023-05-07T12:50:05;19.20;99.90
25092;DHT22;13082;52.374;4.946;2023-05-07T12:52:31;19.30;99.90
25092;DHT22;13082;52.374;4.946;2023-05-07T12:55:07;19.30;99.90
25092;DHT22;13082;52.374;4.946;2023-05-07T12:57:45;19.30;99.90
25092;DHT22;13082;52.374;4.946;2023-05-07T13:00:13;19.30;99.90
25092;DHT22;13082;52.374;4.946;2023-05-07T13:02:41;19.40;99.90
25092;DHT22;13082;52.374;4.946;2023-05-07T13:05:09;19.50;99.90
25092;DHT22;13082;52.374;4.946;2023-05-07T13:07:35;19.50;99.90
25092;DHT22;13082;52.374;4.946;2023-05-07T13:10:02;19.50;99.90
25092;DHT22;13082;52.374;4.946;2023-05-07T13:12:28;19.50;99.90
25092;DHT22;13082;52.374;4.946;2023-05-07T13:14:53;19.50;99.90
25092;DHT22;13082;52.374;4.946;2023-05-07T13:17:19;19.50;99.90
25092;DHT22;13082;52.374;4.946;2023-05-07T13:19:45;19.50;99.90
25092;DHT22;13082;52.374;4.946;2023-05-07T13:22:10;19.40;99.90
25092;DHT22;13082;52.374;4.946;2023-05-07T13:24:36;19.40;99.90
25092;DHT22;13082;52.374;4.946;2023-05-07T13:27:01;19.40;99.90
25092;DHT22;13082;52.374;4.946;2023-05-07T13:29:28;19.40;99.90
25092;DHT22;13082;52.374;4.946;2023-05-07T13:31:56;19.40;99.90
25092;DHT22;13082;52.374;4.946;2023-05-07T13:34:22;19.40;99.90
25092;DHT22;13082;52.374;4.946;2023-05-07T13:36:47;19.30;99.90
25092;DHT22;13082;52.374;4.946;2023-05-07T13:39:13;19.20;99.90
25092;DHT22;13082;52.374;4.946;2023-05-07T13:41:38;19.20;99.90
25092;DHT22;13082;52.374;4.946;2023-05-07T13:44:04;19.10;99.90
25092;DHT22;13082;52.374;4.946;2023-05-07T13:46:30;19.10;99.90
25092;DHT22;13082;52.374;4.946;2023-05-07T13:48:56;19.10;99.90
25092;DHT22;13082;52.374;4.946;2023-05-07T13:51:22;19.00;99.90
25092;DHT22;13082;52.374;4.946;2023-05-07T13:53:47;19.00;99.90
25092;DHT22;13082;52.374;4.946;2023-05-07T13:56:13;19.00;99.90
25092;DHT22;13082;52.374;4.946;2023-05-07T13:58:39;18.90;99.90
25092;DHT22;13082;52.374;4.946;2023-05-07T14:01:05;18.90;99.90
25092;DHT22;13082;52.374;4.946;2023-05-07T14:03:31;18.90;99.90
25092;DHT22;13082;52.374;4.946;2023-05-07T14:06:00;18.90;99.90
25092;DHT22;13082;52.374;4.946;2023-05-07T14:08:27;18.90;99.90
25092;DHT22;13082;52.374;4.946;2023-05-07T14:10:53;18.80;99.90
25092;DHT22;13082;52.374;4.946;2023-05-07T14:13:18;18.70;99.90
25092;DHT22;13082;52.374;4.946;2023-05-07T14:15:44;18.60;99.90
25092;DHT22;13082;52.374;4.946;2023-05-07T14:18:14;18.50;99.90
25092;DHT22;13082;52.374;4.946;2023-05-07T14:20:40;18.40;99.90
25092;DHT22;13082;52.374;4.946;2023-05-07T14:23:06;18.20;99.90
25092;DHT22;13082;52.374;4.946;2023-05-07T14:25:32;18.10;99.90
25092;DHT22;13082;52.374;4.946;2023-05-07T14:27:57;17.90;99.90
25092;DHT22;13082;52.374;4.946;2023-05-07T14:30:23;17.70;99.90
25092;DHT22;13082;52.374;4.946;2023-05-07T14:32:50;17.60;99.90
25092;DHT22;13082;52.374;4.946;2023-05-07T14:35:16;17.50;99.90
25092;DHT22;13082;52.374;4.946;2023-05-07T14:37:42;17.40;99.90
25092;DHT22;13082;52.374;4.946;2023-05-07T14:40:08;17.20;99.90
25092;DHT22;13082;52.374;4.946;2023-05-07T14:42:34;17.20;99.90
25092;DHT22;13082;52.374;4.946;2023-05-07T14:45:00;17.10;99.90
25092;DHT22;13082;52.374;4.946;2023-05-07T14:47:25;17.00;99.90
25092;DHT22;13082;52.374;4.946;2023-05-07T14:49:51;17.00;99.90
25092;DHT22;13082;52.374;4.946;2023-05-07T14:52:18;17.00;99.90
25092;DHT22;13082;52.374;4.946;2023-05-07T14:54:44;16.90;99.90
25092;DHT22;13082;52.374;4.946;2023-05-07T14:57:10;16.90;99.90
25092;DHT22;13082;52.374;4.946;2023-05-07T14:59:39;16.80;99.90
25092;DHT22;13082;52.374;4.946;2023-05-07T15:02:05;16.80;99.90
25092;DHT22;13082;52.374;4.946;2023-05-07T15:04:33;16.80;99.90
25092;DHT22;13082;52.374;4.946;2023-05-07T15:06:59;16.80;99.90
25092;DHT22;13082;52.374;4.946;2023-05-07T15:09:25;16.70;99.90
25092;DHT22;13082;52.374;4.946;2023-05-07T15:11:51;16.60;99.90
25092;DHT22;13082;52.374;4.946;2023-05-07T15:14:17;16.50;99.90
25092;DHT22;13082;52.374;4.946;2023-05-07T15:16:42;16.40;99.90
25092;DHT22;13082;52.374;4.946;2023-05-07T15:19:14;16.40;99.90
25092;DHT22;13082;52.374;4.946;2023-05-07T15:21:41;16.30;99.90
25092;DHT22;13082;52.374;4.946;2023-05-07T15:24:08;16.20;99.90
25092;DHT22;13082;52.374;4.946;2023-05-07T15:26:34;16.30;99.90
25092;DHT22;13082;52.374;4.946;2023-05-07T15:28:59;16.20;99.90
25092;DHT22;13082;52.374;4.946;2023-05-07T15:31:25;16.20;99.90
25092;DHT22;13082;52.374;4.946;2023-05-07T15:33:51;16.20;99.90
25092;DHT22;13082;52.374;4.946;2023-05-07T15:36:20;16.30;99.90
25092;DHT22;13082;52.374;4.946;2023-05-07T15:38:46;16.30;99.90
25092;DHT22;13082;52.374;4.946;2023-05-07T15:41:11;16.30;99.90
25092;DHT22;13082;52.374;4.946;2023-05-07T15:43:47;16.30;99.90